createdAt,value
2023-05-24T00:01:28.877Z,21.48
2023-05-24T00:03:35.273Z,21.47
2023-05-24T00:05:41.364Z,21.45
2023-05-24T00:07:48.936Z,21.43
2023-05-24T00:09:53.806Z,21.42
2023-05-24T00:11:58.760Z,21.37
2023-05-24T00:14:03.828Z,21.35
2023-05-24T00:16:09.036Z,21.35
2023-05-24T00:18:13.822Z,21.33
2023-05-24T00:20:21.220Z,21.32
2023-05-24T00:22:26.299Z,21.31
2023-05-24T00:24:33.856Z,21.29
2023-05-24T00:26:38.638Z,21.28
2023-05-24T00:28:43.728Z,21.27
2023-05-24T00:30:49.325Z,21.28
2023-05-24T00:32:54.242Z,21.28
2023-05-24T00:34:59.082Z,21.27
2023-05-24T00:37:03.984Z,21.25
2023-05-24T00:39:08.917Z,21.25
2023-05-24T00:41:16.329Z,21.23
2023-05-24T00:43:22.066Z,21.23
2023-05-24T00:45:27.157Z,21.25
2023-05-24T00:47:32.097Z,21.24
2023-05-24T00:49:37.896Z,21.24
2023-05-24T00:51:43.239Z,21.23
2023-05-24T00:53:50.178Z,21.26
2023-05-24T00:55:55.184Z,21.25
2023-05-24T00:58:04.061Z,21.25
2023-05-24T01:00:11.430Z,21.25
2023-05-24T01:02:17.236Z,21.25
2023-05-24T01:04:23.282Z,21.24
2023-05-24T01:06:29.318Z,21.24
2023-05-24T01:08:46.727Z,21.24
2023-05-24T01:11:02.303Z,21.22
2023-05-24T01:13:24.657Z,21.20
2023-05-24T01:15:36.642Z,21.18
2023-05-24T01:17:49.537Z,21.17
2023-05-24T01:19:55.522Z,21.05
2023-05-24T01:22:12.248Z,21.01
2023-05-24T01:24:28.341Z,21.00
2023-05-24T01:26:42.888Z,20.97
2023-05-24T01:28:51.505Z,20.96
2023-05-24T01:30:57.593Z,20.96
2023-05-24T01:33:02.951Z,20.94
2023-05-24T01:35:08.856Z,20.95
2023-05-24T01:37:14.037Z,20.95
2023-05-24T01:39:19.087Z,20.96
2023-05-24T01:41:37.311Z,20.95
2023-05-24T01:43:48.481Z,20.93
2023-05-24T01:46:04.842Z,20.93
2023-05-24T01:48:19.483Z,20.94
2023-05-24T01:50:31.395Z,20.95
2023-05-24T01:52:38.517Z,20.93
2023-05-24T01:54:51.234Z,20.92
2023-05-24T01:56:57.349Z,20.93
2023-05-24T01:59:04.763Z,20.92
2023-05-24T02:01:13.367Z,20.92
2023-05-24T02:03:18.595Z,20.92
2023-05-24T02:05:24.642Z,20.93
2023-05-24T02:07:29.745Z,20.92
2023-05-24T02:09:35.127Z,20.93
2023-05-24T02:11:40.257Z,20.93
2023-05-24T02:13:45.158Z,20.92
2023-05-24T02:15:51.998Z,20.92
2023-05-24T02:18:01.619Z,20.90
2023-05-24T02:20:09.128Z,20.89
2023-05-24T02:22:14.549Z,20.89
2023-05-24T02:24:19.458Z,20.88
2023-05-24T02:26:24.349Z,20.88
2023-05-24T02:28:32.472Z,20.88
2023-05-24T02:30:38.621Z,20.87
2023-05-24T02:32:44.195Z,20.87
2023-05-24T02:34:51.882Z,20.85
2023-05-24T02:36:57.239Z,20.86
2023-05-24T02:39:02.204Z,20.84
2023-05-24T02:41:08.605Z,20.82
2023-05-24T02:43:13.430Z,20.79
2023-05-24T02:45:18.662Z,20.76
2023-05-24T02:47:23.607Z,20.75
2023-05-24T02:49:28.577Z,20.72
2023-05-24T02:51:37.477Z,20.71
2023-05-24T02:53:43.708Z,20.69
2023-05-24T02:55:49.090Z,20.68
2023-05-24T02:57:54.233Z,20.66
2023-05-24T03:00:00.186Z,20.64
2023-05-24T03:02:05.217Z,20.63
2023-05-24T03:04:10.880Z,20.58
2023-05-24T03:06:16.651Z,20.58
2023-05-24T03:08:26.794Z,20.54
2023-05-24T03:10:31.696Z,20.52
2023-05-24T03:12:36.628Z,20.51
2023-05-24T03:14:41.549Z,20.47
2023-05-24T03:16:46.469Z,20.44
2023-05-24T03:18:52.409Z,20.39
2023-05-24T03:20:58.075Z,20.36
2023-05-24T03:23:03.220Z,20.31
2023-05-24T03:25:12.633Z,20.27
2023-05-24T03:27:17.641Z,20.25
2023-05-24T03:29:22.778Z,20.21
2023-05-24T03:31:28.881Z,20.19
2023-05-24T03:33:34.181Z,20.16
2023-05-24T03:35:40.073Z,20.13
2023-05-24T03:37:45.048Z,20.11
2023-05-24T03:39:50.014Z,20.10
2023-05-24T03:42:16.373Z,20.04
2023-05-24T03:44:21.200Z,20.03
2023-05-24T03:46:26.023Z,20.03
2023-05-24T03:48:31.035Z,20.02
2023-05-24T03:50:37.454Z,20.01
2023-05-24T03:52:42.373Z,20.01
2023-05-24T03:54:47.272Z,19.99
2023-05-24T03:56:53.946Z,20.01
2023-05-24T03:59:04.263Z,20.00
2023-05-24T04:01:21.957Z,20.00
2023-05-24T04:03:35.326Z,19.99
2023-05-24T04:05:40.359Z,19.99
2023-05-24T04:07:46.644Z,19.99
2023-05-24T04:09:51.836Z,19.99
2023-05-24T04:11:56.703Z,20.00
2023-05-24T04:14:04.185Z,19.99
2023-05-24T04:16:09.957Z,20.01
2023-05-24T04:18:15.116Z,20.02
2023-05-24T04:20:20.457Z,20.02
2023-05-24T04:22:28.019Z,20.01
2023-05-24T04:24:32.923Z,20.01
2023-05-24T04:26:38.895Z,20.02
2023-05-24T04:28:45.768Z,20.02
2023-05-24T04:30:56.301Z,20.03
2023-05-24T04:33:02.242Z,20.02
2023-05-24T04:35:09.812Z,20.03
2023-05-24T04:37:17.456Z,20.03
2023-05-24T04:39:24.410Z,20.03
2023-05-24T04:41:32.100Z,20.04
2023-05-24T04:43:37.468Z,20.05
2023-05-24T04:45:42.461Z,20.04
2023-05-24T04:47:50.222Z,20.04
2023-05-24T04:49:55.151Z,20.04
2023-05-24T04:52:00.621Z,20.04
2023-05-24T04:54:09.343Z,20.03
2023-05-24T04:56:17.147Z,20.03
2023-05-24T04:58:22.404Z,20.04
2023-05-24T05:00:27.303Z,20.03
2023-05-24T05:02:32.741Z,20.04
2023-05-24T05:04:40.549Z,20.04
2023-05-24T05:06:46.751Z,20.05
2023-05-24T05:08:52.192Z,20.07
2023-05-24T05:10:57.012Z,20.08
2023-05-24T05:13:02.009Z,20.08
2023-05-24T05:15:07.939Z,20.09
2023-05-24T05:17:13.852Z,20.09
2023-05-24T05:19:19.022Z,20.10
2023-05-24T05:21:26.533Z,20.10
2023-05-24T05:23:31.468Z,20.10
2023-05-24T05:25:36.352Z,20.11
2023-05-24T05:27:41.265Z,20.12
2023-05-24T05:29:46.420Z,20.12
2023-05-24T05:31:51.456Z,20.12
2023-05-24T05:33:56.441Z,20.14
2023-05-24T05:36:01.600Z,20.16
2023-05-24T05:38:09.585Z,20.16
2023-05-24T05:40:15.629Z,20.20
2023-05-24T05:42:20.787Z,20.19
2023-05-24T05:44:25.920Z,20.19
2023-05-24T05:46:31.057Z,20.20
2023-05-24T05:48:36.036Z,20.20
2023-05-24T05:50:41.456Z,20.19
2023-05-24T05:52:46.486Z,20.18
2023-05-24T05:54:54.672Z,20.18
2023-05-24T05:57:01.519Z,20.19
2023-05-24T05:59:06.793Z,20.18
2023-05-24T06:01:12.005Z,20.18
2023-05-24T06:03:17.292Z,20.20
2023-05-24T06:05:22.918Z,20.21
2023-05-24T06:07:28.218Z,20.17
2023-05-24T06:09:33.186Z,20.16
2023-05-24T06:11:45.175Z,20.15
2023-05-24T06:13:50.062Z,20.15
2023-05-24T06:15:55.241Z,20.17
2023-05-24T06:18:00.811Z,20.16
2023-05-24T06:20:06.724Z,20.13
2023-05-24T06:22:11.635Z,20.13
2023-05-24T06:24:20.671Z,20.12
2023-05-24T06:26:27.305Z,20.12
2023-05-24T06:28:38.243Z,20.10
2023-05-24T06:30:43.242Z,20.08
2023-05-24T06:32:51.067Z,20.08
2023-05-24T06:34:56.070Z,20.07
2023-05-24T06:37:01.362Z,20.05
2023-05-24T06:39:06.855Z,20.05
2023-05-24T06:41:11.646Z,20.08
2023-05-24T06:43:17.798Z,20.12
2023-05-24T06:45:28.222Z,20.16
2023-05-24T06:47:33.173Z,20.20
2023-05-24T06:49:38.269Z,20.26
2023-05-24T06:51:43.391Z,20.30
2023-05-24T06:53:48.204Z,20.33
2023-05-24T06:55:54.421Z,20.36
2023-05-24T06:58:00.933Z,20.40
2023-05-24T07:00:10.039Z,20.45
2023-05-24T07:02:17.547Z,20.47
2023-05-24T07:04:22.365Z,20.51
2023-05-24T07:06:27.255Z,20.54
2023-05-24T07:08:32.028Z,20.56
2023-05-24T07:10:36.877Z,20.60
2023-05-24T07:12:42.589Z,20.63
2023-05-24T07:14:47.626Z,20.65
2023-05-24T07:16:52.680Z,20.67
2023-05-24T07:19:04.855Z,20.71
2023-05-24T07:21:10.001Z,20.75
2023-05-24T07:23:14.933Z,20.80
2023-05-24T07:25:19.779Z,20.86
2023-05-24T07:27:25.390Z,20.90
2023-05-24T07:29:30.245Z,20.94
2023-05-24T07:31:35.635Z,20.98
2023-05-24T07:33:40.674Z,21.02
2023-05-24T07:35:51.755Z,21.04
2023-05-24T07:37:56.700Z,21.06
2023-05-24T07:40:01.632Z,21.06
2023-05-24T07:42:07.011Z,21.07
2023-05-24T07:44:12.327Z,21.09
2023-05-24T07:46:17.105Z,21.10
2023-05-24T07:48:22.126Z,21.12
2023-05-24T07:50:29.393Z,21.12
2023-05-24T07:52:39.006Z,21.13
2023-05-24T07:54:44.068Z,21.16
2023-05-24T07:56:49.335Z,21.19
2023-05-24T07:58:57.134Z,21.21
2023-05-24T08:01:02.366Z,21.23
2023-05-24T08:03:07.948Z,21.25
2023-05-24T08:05:15.276Z,21.27
2023-05-24T08:07:20.101Z,21.29
2023-05-24T08:09:29.933Z,21.31
2023-05-24T08:11:34.715Z,21.31
2023-05-24T08:13:39.688Z,21.33
2023-05-24T08:15:44.639Z,21.35
2023-05-24T08:17:49.994Z,21.37
2023-05-24T08:19:54.779Z,21.39
2023-05-24T08:22:04.762Z,21.42
2023-05-24T08:24:09.769Z,21.43
2023-05-24T08:26:19.372Z,21.45
2023-05-24T08:28:24.184Z,21.49
2023-05-24T08:30:29.286Z,21.51
2023-05-24T08:32:35.082Z,21.52
2023-05-24T08:34:40.688Z,21.53
2023-05-24T08:36:46.112Z,21.54
2023-05-24T08:38:51.280Z,21.57
2023-05-24T08:40:56.184Z,21.58
2023-05-24T08:43:04.739Z,21.59
2023-05-24T08:45:15.323Z,21.63
2023-05-24T08:47:20.763Z,21.68
2023-05-24T08:49:25.535Z,21.72
2023-05-24T08:51:30.641Z,21.76
2023-05-24T08:53:37.401Z,21.78
2023-05-24T08:55:44.211Z,21.82
2023-05-24T08:57:50.605Z,21.85
2023-05-24T08:59:58.421Z,21.87
2023-05-24T09:02:05.644Z,21.91
2023-05-24T09:04:11.927Z,21.94
2023-05-24T09:06:19.442Z,21.96
2023-05-24T09:08:25.292Z,22.00
2023-05-24T09:10:44.929Z,22.03
2023-05-24T09:12:59.482Z,22.04
2023-05-24T09:15:08.717Z,22.06
2023-05-24T09:17:16.133Z,22.09
2023-05-24T09:19:23.153Z,22.09
2023-05-24T09:21:29.705Z,22.10
2023-05-24T09:23:35.340Z,22.10
2023-05-24T09:25:44.774Z,22.10
2023-05-24T09:27:53.818Z,22.08
2023-05-24T09:29:59.544Z,22.08
2023-05-24T09:32:10.406Z,22.05
2023-05-24T09:34:18.657Z,22.03
2023-05-24T09:36:23.551Z,22.02
2023-05-24T09:38:29.850Z,21.99
2023-05-24T09:40:34.866Z,21.97
2023-05-24T09:42:39.689Z,21.95
2023-05-24T09:44:44.562Z,21.95
2023-05-24T09:46:49.394Z,21.94
2023-05-24T09:49:04.231Z,21.94
2023-05-24T09:51:11.640Z,21.94
2023-05-24T09:53:20.071Z,21.95
2023-05-24T09:55:26.188Z,21.96
2023-05-24T09:57:32.711Z,21.96
2023-05-24T09:59:37.918Z,21.96
2023-05-24T10:01:42.923Z,21.95
2023-05-24T10:03:55.912Z,21.93
2023-05-24T10:06:05.111Z,21.85
2023-05-24T10:08:10.563Z,21.88
2023-05-24T10:10:15.370Z,21.89
2023-05-24T10:12:23.326Z,21.92
2023-05-24T10:14:29.351Z,21.92
2023-05-24T10:16:34.164Z,21.94
2023-05-24T10:18:39.733Z,21.95
2023-05-24T10:20:45.719Z,21.99
2023-05-24T10:22:55.907Z,22.03
2023-05-24T10:25:01.927Z,22.07
2023-05-24T10:27:11.379Z,22.09
2023-05-24T10:29:27.145Z,22.10
2023-05-24T10:31:36.056Z,22.12
2023-05-24T10:33:41.959Z,22.13
2023-05-24T10:35:48.758Z,22.13
2023-05-24T10:37:57.567Z,22.11
2023-05-24T10:40:04.458Z,22.09
2023-05-24T10:42:10.245Z,22.07
2023-05-24T10:44:16.495Z,22.02
2023-05-24T10:46:21.526Z,22.00
2023-05-24T10:48:43.154Z,21.97
2023-05-24T10:50:52.318Z,21.96
2023-05-24T10:53:14.525Z,21.94
2023-05-24T10:55:21.835Z,21.95
2023-05-24T10:57:27.252Z,21.94
2023-05-24T10:59:38.067Z,21.94
2023-05-24T11:01:42.910Z,21.92
2023-05-24T11:03:48.279Z,21.92
2023-05-24T11:05:55.721Z,21.92
2023-05-24T11:08:06.024Z,21.90
2023-05-24T11:10:17.088Z,21.90
2023-05-24T11:12:23.835Z,21.89
2023-05-24T11:14:32.240Z,21.87
2023-05-24T11:16:40.398Z,21.86
2023-05-24T11:18:58.237Z,21.82
2023-05-24T11:21:04.201Z,21.81
2023-05-24T11:23:12.283Z,21.76
2023-05-24T11:25:17.694Z,21.74
2023-05-24T11:27:23.315Z,21.73
2023-05-24T11:29:29.112Z,21.73
2023-05-24T11:31:37.921Z,21.70
2023-05-24T11:33:45.434Z,21.69
2023-05-24T11:35:50.693Z,21.68
2023-05-24T11:37:55.519Z,21.68
2023-05-24T11:40:06.580Z,21.67
2023-05-24T11:42:12.012Z,21.67
2023-05-24T11:44:21.475Z,21.64
2023-05-24T11:46:26.611Z,21.65
2023-05-24T11:48:32.219Z,21.65
2023-05-24T11:50:49.146Z,21.63
2023-05-24T11:52:55.069Z,21.63
2023-05-24T11:55:02.624Z,21.63
2023-05-24T11:57:08.650Z,21.64
2023-05-24T11:59:18.273Z,21.62
2023-05-24T12:01:27.781Z,21.62
2023-05-24T12:03:32.907Z,21.59
2023-05-24T12:05:38.397Z,21.58
2023-05-24T12:07:48.996Z,21.56
2023-05-24T12:09:53.863Z,21.55
2023-05-24T12:12:02.179Z,21.55
2023-05-24T12:14:06.969Z,21.58
2023-05-24T12:16:14.928Z,21.57
2023-05-24T12:18:22.828Z,21.56
2023-05-24T12:20:30.318Z,21.59
2023-05-24T12:22:35.151Z,21.59
2023-05-24T12:24:40.813Z,21.61
2023-05-24T12:26:46.900Z,21.64
2023-05-24T12:28:58.058Z,21.64
2023-05-24T12:31:03.213Z,21.68
2023-05-24T12:33:08.086Z,21.70
2023-05-24T12:35:14.427Z,21.74
2023-05-24T12:37:20.843Z,21.76
2023-05-24T12:39:31.218Z,21.78
2023-05-24T12:41:36.771Z,21.80
2023-05-24T12:43:44.638Z,21.83
2023-05-24T12:45:54.400Z,21.82
2023-05-24T12:48:02.984Z,21.85
2023-05-24T12:50:08.746Z,21.86
2023-05-24T12:52:13.595Z,21.88
2023-05-24T12:54:18.928Z,21.90
2023-05-24T12:56:25.249Z,21.91
2023-05-24T12:58:30.143Z,21.92
2023-05-24T13:00:35.254Z,21.93
2023-05-24T13:02:43.467Z,21.93
2023-05-24T13:04:48.484Z,21.96
2023-05-24T13:06:53.556Z,21.97
2023-05-24T13:08:58.620Z,22.00
2023-05-24T13:11:03.507Z,22.03
2023-05-24T13:13:08.435Z,22.04
2023-05-24T13:15:14.549Z,22.07
2023-05-24T13:17:19.770Z,22.09
2023-05-24T13:19:27.239Z,22.12
2023-05-24T13:21:32.204Z,22.18
2023-05-24T13:23:39.066Z,22.23
2023-05-24T13:25:44.173Z,22.26
2023-05-24T13:27:49.144Z,22.27
2023-05-24T13:32:04.536Z,22.36
2023-05-24T13:34:11.026Z,22.40
2023-05-24T13:36:18.785Z,22.41
2023-05-24T13:38:24.336Z,22.45
2023-05-24T13:40:29.639Z,22.47
2023-05-24T13:42:34.744Z,22.48
2023-05-24T13:44:40.127Z,22.49
2023-05-24T13:46:46.051Z,22.49
2023-05-24T13:48:51.645Z,22.50
2023-05-24T13:50:56.548Z,22.49
2023-05-24T13:53:04.993Z,22.50
2023-05-24T13:55:10.977Z,22.50
2023-05-24T13:57:15.895Z,22.49
2023-05-24T13:59:20.901Z,22.49
2023-05-24T14:01:26.330Z,22.48
2023-05-24T14:03:31.517Z,22.46
2023-05-24T14:05:36.976Z,22.43
2023-05-24T14:07:41.933Z,22.43
2023-05-24T14:09:49.749Z,22.41
2023-05-24T14:11:54.766Z,22.41
2023-05-24T14:16:08.793Z,22.37
2023-05-24T14:18:13.862Z,22.34
2023-05-24T14:20:18.949Z,22.30
2023-05-24T14:22:26.297Z,22.28
2023-05-24T14:24:31.613Z,22.28
2023-05-24T14:26:39.133Z,22.26
2023-05-24T14:28:44.115Z,22.26
2023-05-24T14:30:49.049Z,22.26
2023-05-24T14:32:53.926Z,22.26
2023-05-24T14:34:58.880Z,22.26
2023-05-24T14:37:03.860Z,22.27
2023-05-24T14:39:09.408Z,22.29
2023-05-24T14:41:14.256Z,22.30
2023-05-24T14:43:21.802Z,22.30
2023-05-24T14:45:27.446Z,22.33
2023-05-24T14:47:32.484Z,22.33
2023-05-24T14:49:37.469Z,22.31
2023-05-24T14:51:42.433Z,22.33
2023-05-24T14:53:47.421Z,22.31
2023-05-24T14:55:54.554Z,22.34
2023-05-24T14:57:59.479Z,22.34
2023-05-24T15:00:07.663Z,22.32
2023-05-24T15:02:12.749Z,22.31
2023-05-24T15:04:17.700Z,22.30
2023-05-24T15:06:22.736Z,22.29
2023-05-24T15:08:28.042Z,22.29
2023-05-24T15:10:33.499Z,22.27
2023-05-24T15:12:38.728Z,22.26
2023-05-24T15:14:43.765Z,22.26
2023-05-24T15:16:51.377Z,22.24
2023-05-24T15:18:56.813Z,22.24
2023-05-24T15:21:01.940Z,22.25
2023-05-24T15:23:10.916Z,22.23
2023-05-24T15:25:16.054Z,22.22
2023-05-24T15:27:21.243Z,22.21
2023-05-24T15:29:26.240Z,22.20
2023-05-24T15:31:31.158Z,22.19
2023-05-24T15:33:38.878Z,22.18
2023-05-24T15:35:44.102Z,22.15
2023-05-24T15:37:49.296Z,22.13
2023-05-24T15:39:54.673Z,22.12
2023-05-24T15:42:02.818Z,22.11
2023-05-24T15:44:09.022Z,22.11
2023-05-24T15:46:14.150Z,22.11
2023-05-24T15:48:19.079Z,22.10
2023-05-24T15:50:47.515Z,22.08
2023-05-24T15:52:52.133Z,22.07
2023-05-24T15:54:57.076Z,22.06
2023-05-24T15:57:02.133Z,22.07
2023-05-24T15:59:07.237Z,22.07
2023-05-24T16:01:12.341Z,22.08
2023-05-24T16:03:17.569Z,22.08
2023-05-24T16:05:22.859Z,22.10
2023-05-24T16:07:30.293Z,22.10
2023-05-24T16:09:35.160Z,22.11
2023-05-24T16:11:39.999Z,22.12
2023-05-24T16:13:44.889Z,22.11
2023-05-24T16:15:51.899Z,22.12
2023-05-24T16:17:56.911Z,22.11
2023-05-24T16:20:02.078Z,22.11
2023-05-24T16:22:07.313Z,22.10
2023-05-24T16:24:15.025Z,22.12
2023-05-24T16:26:19.895Z,22.11
2023-05-24T16:28:25.183Z,22.12
2023-05-24T16:30:30.248Z,22.12
2023-05-24T16:32:35.368Z,22.13
2023-05-24T16:34:55.422Z,22.12
2023-05-24T16:37:02.046Z,22.08
2023-05-24T16:39:07.397Z,22.09
2023-05-24T16:41:15.137Z,22.06
2023-05-24T16:43:20.457Z,22.03
2023-05-24T16:45:25.708Z,22.02
2023-05-24T16:47:30.925Z,22.01
2023-05-24T16:49:36.317Z,21.99
2023-05-24T16:51:41.571Z,21.98
2023-05-24T16:53:46.938Z,21.96
2023-05-24T16:55:54.193Z,21.95
2023-05-24T16:58:03.703Z,21.92
2023-05-24T17:00:10.070Z,21.92
2023-05-24T17:02:14.951Z,21.89
2023-05-24T17:04:20.081Z,21.88
2023-05-24T17:06:25.998Z,21.85
2023-05-24T17:08:31.484Z,21.84
2023-05-24T17:10:36.364Z,21.81
2023-05-24T17:12:41.580Z,21.78
2023-05-24T17:14:49.196Z,21.75
2023-05-24T17:16:54.025Z,21.74
2023-05-24T17:18:59.045Z,21.72
2023-05-24T17:21:05.225Z,21.70
2023-05-24T17:23:10.364Z,21.67
2023-05-24T17:25:15.295Z,21.66
2023-05-24T17:27:22.400Z,21.64
2023-05-24T17:29:30.091Z,21.60
2023-05-24T17:31:38.417Z,21.58
2023-05-24T17:33:43.261Z,21.56
2023-05-24T17:35:48.494Z,21.54
2023-05-24T17:37:53.351Z,21.52
2023-05-24T17:39:58.252Z,21.50
2023-05-24T17:42:03.097Z,21.48
2023-05-24T17:44:08.137Z,21.45
2023-05-24T17:46:13.683Z,21.43
2023-05-24T17:48:22.402Z,21.40
2023-05-24T17:50:27.492Z,21.36
2023-05-24T17:52:32.602Z,21.34
2023-05-24T17:54:37.421Z,21.31
2023-05-24T17:56:42.270Z,21.29
2023-05-24T17:58:47.681Z,21.26
2023-05-24T18:00:53.221Z,21.24
2023-05-24T18:02:58.137Z,21.22
2023-05-24T18:05:05.972Z,21.18
2023-05-24T18:07:11.216Z,21.17
2023-05-24T18:09:16.435Z,21.14
2023-05-24T18:11:22.470Z,21.13
2023-05-24T18:13:28.340Z,21.11
2023-05-24T18:15:33.421Z,21.09
2023-05-24T18:17:38.721Z,21.07
2023-05-24T18:19:43.850Z,21.06
2023-05-24T18:21:53.472Z,21.03
2023-05-24T18:23:58.428Z,21.02
2023-05-24T18:26:03.366Z,21.01
2023-05-24T18:28:08.257Z,20.98
2023-05-24T18:30:14.305Z,20.97
2023-05-24T18:32:19.444Z,20.94
2023-05-24T18:34:24.694Z,20.92
2023-05-24T18:36:29.573Z,20.89
2023-05-24T18:38:40.143Z,20.85
2023-05-24T18:40:45.072Z,20.84
2023-05-24T18:42:49.883Z,20.81
2023-05-24T18:44:54.879Z,20.77
2023-05-24T18:47:00.574Z,20.75
2023-05-24T18:49:08.463Z,20.71
2023-05-24T18:51:13.468Z,20.67
2023-05-24T18:53:18.355Z,20.63
2023-05-24T18:55:25.833Z,20.59
2023-05-24T18:57:31.483Z,20.54
2023-05-24T18:59:36.484Z,20.51
2023-05-24T19:01:41.770Z,20.46
2023-05-24T19:03:46.933Z,20.44
2023-05-24T19:05:51.788Z,20.39
2023-05-24T19:07:57.634Z,20.35
2023-05-24T19:10:04.456Z,20.32
2023-05-24T19:12:12.552Z,20.25
2023-05-24T19:14:20.351Z,20.22
2023-05-24T19:16:25.637Z,20.19
2023-05-24T19:18:30.477Z,20.14
2023-05-24T19:20:35.384Z,20.10
2023-05-24T19:22:40.268Z,20.07
2023-05-24T19:24:45.191Z,20.02
2023-05-24T19:26:49.997Z,20.00
2023-05-24T19:28:57.536Z,19.97
2023-05-24T19:31:02.699Z,19.95
2023-05-24T19:33:07.733Z,19.94
2023-05-24T19:35:14.091Z,19.92
2023-05-24T19:37:19.037Z,19.88
2023-05-24T19:39:25.090Z,19.86
2023-05-24T19:41:30.930Z,19.85
2023-05-24T19:43:35.766Z,19.82
2023-05-24T19:45:43.270Z,19.80
2023-05-24T19:47:48.332Z,19.77
2023-05-24T19:49:53.214Z,19.74
2023-05-24T19:51:58.226Z,19.71
2023-05-24T19:54:03.111Z,19.69
2023-05-24T19:56:08.222Z,19.69
2023-05-24T19:58:13.050Z,19.66
2023-05-24T20:00:18.577Z,19.64
2023-05-24T20:02:27.187Z,19.62
2023-05-24T20:04:35.181Z,19.62
2023-05-24T20:06:40.580Z,19.60
2023-05-24T20:08:45.352Z,19.59
2023-05-24T20:10:50.883Z,19.60
2023-05-24T20:12:55.668Z,19.59
2023-05-24T20:15:00.525Z,19.57
2023-05-24T20:17:05.654Z,19.56
2023-05-24T20:19:13.551Z,19.52
2023-05-24T20:21:20.837Z,19.51
2023-05-24T20:23:27.545Z,19.49
2023-05-24T20:25:32.594Z,19.47
2023-05-24T20:27:37.626Z,19.47
2023-05-24T20:29:42.384Z,19.46
2023-05-24T20:31:47.483Z,19.44
2023-05-24T20:33:53.143Z,19.43
2023-05-24T20:36:01.131Z,19.40
2023-05-24T20:38:06.102Z,19.38
2023-05-24T20:40:12.091Z,19.36
2023-05-24T20:42:16.868Z,19.34
2023-05-24T20:44:21.886Z,19.32
2023-05-24T20:46:26.909Z,19.30
2023-05-24T20:48:31.780Z,19.28
2023-05-24T20:50:36.568Z,19.28
2023-05-24T20:52:44.018Z,19.27
2023-05-24T20:54:48.850Z,19.26
2023-05-24T20:56:53.731Z,19.25
2023-05-24T20:59:00.182Z,19.23
2023-05-24T21:01:05.016Z,19.21
2023-05-24T21:03:09.987Z,19.18
2023-05-24T21:05:14.942Z,19.17
2023-05-24T21:07:19.801Z,19.16
2023-05-24T21:09:27.161Z,19.15
2023-05-24T21:11:32.776Z,19.12
2023-05-24T21:13:37.602Z,19.13
2023-05-24T21:15:44.704Z,19.13
2023-05-24T21:17:50.483Z,19.11
2023-05-24T21:19:55.360Z,19.10
2023-05-24T21:22:00.423Z,19.09
2023-05-24T21:24:05.216Z,19.08
2023-05-24T21:26:12.637Z,19.07
2023-05-24T21:28:17.770Z,19.07
2023-05-24T21:30:22.659Z,19.05
2023-05-24T21:32:27.698Z,19.06
2023-05-24T21:34:32.501Z,19.05
2023-05-24T21:36:37.854Z,19.04
2023-05-24T21:38:43.279Z,19.02
2023-05-24T21:40:48.089Z,19.02
2023-05-24T21:42:57.654Z,19.01
2023-05-24T21:45:02.487Z,19.00
2023-05-24T21:47:08.132Z,19.00
2023-05-24T21:49:13.085Z,18.98
2023-05-24T21:51:18.300Z,18.98
2023-05-24T21:53:23.107Z,18.97
2023-05-24T21:55:28.055Z,18.96
2023-05-24T21:57:33.090Z,18.95
2023-05-24T21:59:40.574Z,18.94
2023-05-24T22:01:45.365Z,18.94
2023-05-24T22:03:50.287Z,18.93
2023-05-24T22:05:55.459Z,18.92
2023-05-24T22:08:00.444Z,18.90
2023-05-24T22:10:05.231Z,18.89
2023-05-24T22:12:10.502Z,18.88
2023-05-24T22:14:15.588Z,18.87
2023-05-24T22:16:23.124Z,18.86
2023-05-24T22:18:28.562Z,18.85
2023-05-24T22:20:33.528Z,18.84
2023-05-24T22:22:40.405Z,18.83
2023-05-24T22:24:46.682Z,18.84
2023-05-24T22:26:52.643Z,18.82
2023-05-24T22:29:00.983Z,18.82
2023-05-24T22:31:06.427Z,18.81
2023-05-24T22:33:14.038Z,18.80
2023-05-24T22:35:19.234Z,18.79
2023-05-24T22:37:24.187Z,18.79
2023-05-24T22:39:29.186Z,18.78
2023-05-24T22:41:34.414Z,18.77
2023-05-24T22:43:39.115Z,18.77
2023-05-24T22:45:44.530Z,18.76
2023-05-24T22:47:49.997Z,18.74
2023-05-24T22:49:58.112Z,18.73
2023-05-24T22:52:02.957Z,18.72
2023-05-24T22:54:07.880Z,18.71
2023-05-24T22:56:12.764Z,18.72
2023-05-24T22:58:17.930Z,18.72
2023-05-24T23:00:23.500Z,18.72
2023-05-24T23:02:29.373Z,18.71
2023-05-24T23:04:34.691Z,18.71
2023-05-24T23:06:42.050Z,18.69
2023-05-24T23:08:47.936Z,18.69
2023-05-24T23:10:54.547Z,18.68
2023-05-24T23:12:59.564Z,18.67
2023-05-24T23:15:04.876Z,18.67
2023-05-24T23:17:10.638Z,18.65
2023-05-24T23:19:19.092Z,18.64
2023-05-24T23:21:24.928Z,18.62
2023-05-24T23:23:32.276Z,18.61
2023-05-24T23:25:37.927Z,18.59
2023-05-24T23:27:43.501Z,18.59
2023-05-24T23:29:48.318Z,18.58
2023-05-24T23:31:53.101Z,18.57
2023-05-24T23:33:57.836Z,18.57
2023-05-24T23:36:02.814Z,18.56
2023-05-24T23:38:07.670Z,18.55
2023-05-24T23:40:16.280Z,18.53
2023-05-24T23:42:21.197Z,18.52
2023-05-24T23:44:26.155Z,18.52
2023-05-24T23:46:31.020Z,18.51
2023-05-24T23:48:36.665Z,18.51
2023-05-24T23:50:53.062Z,18.51
2023-05-24T23:52:59.258Z,18.49
2023-05-24T23:55:04.506Z,18.47
2023-05-24T23:57:12.023Z,18.47
2023-05-24T23:59:17.060Z,18.45
